Jackie Gonsoulin — WDE3014 — position and weather

sailwx.info

Track history (hours):
 
Tides and Currents Weather Stations Pressure Air Temp Water Temp Dewpoint Dewpoint Depression Visibility Wind Speed Wind Dir Waves Ship Positions

Jackie Gonsoulin

Owner: LeBeouf Bros. Towing, LLC, Houma, LA. More information available from US FCC via Universal Licensing System and Coast Guard Vessel Documentation Center.

Last reported at 2018-Feb-21 19:00 UTC. Time now 2018-Feb-21 19:12 UTC.
Position N 30°01' W 093°59'.

Length 23 m.

Type: Tug. MMSI: 367332930.

Date/timePositionNaut miles runAvg speedWind from/ knotsBaromVisibWave heightAir tempDewpointWater temp
2018-Feb-21 19:00N 30°01' W 093°59'2 4.6
2018-Feb-21 18:30N 29°60' W 093°57'4 8.2
2018-Feb-21 18:01N 29°59' W 093°52'3 5.1
2018-Feb-21 17:30N 29°59' W 093°49'3 5.5
2018-Feb-21 17:00N 30°00' W 093°46'3 6.8
2018-Feb-21 16:30N 30°03' W 093°44'3 6.4
2018-Feb-21 16:00N 30°04' W 093°40'3 6.6
2018-Feb-21 15:30N 30°04' W 093°36'3 6.6
2018-Feb-21 15:00N 30°04' W 093°33'3 6.7
2018-Feb-21 14:30N 30°04' W 093°29'3 6.3
2018-Feb-21 14:00N 30°04' W 093°25'3 6.4
2018-Feb-21 13:30N 30°04' W 093°22'2 4.9
2018-Feb-21 13:00N 30°05' W 093°20'1 2.9
2018-Feb-21 12:30N 30°06' W 093°18'0 0.1
2018-Feb-21 12:00N 30°06' W 093°18'0 0.0
2018-Feb-21 11:30N 30°06' W 093°18'0 0.0
2018-Feb-21 11:00N 30°06' W 093°18'0 0.0
2018-Feb-21 10:30N 30°06' W 093°18'0 0.0
2018-Feb-21 10:00N 30°06' W 093°18'0 0.0
2018-Feb-21 09:30N 30°06' W 093°18'0 0.0
2018-Feb-21 09:00N 30°06' W 093°18'0 0.0
2018-Feb-21 08:30N 30°06' W 093°18'0 0.0
2018-Feb-21 08:00N 30°06' W 093°18'0 0.0
2018-Feb-21 07:30N 30°06' W 093°18'0 0.0
2018-Feb-21 07:00N 30°06' W 093°18'0 0.0
2018-Feb-21 06:30N 30°06' W 093°18'0 0.0
2018-Feb-21 06:00N 30°06' W 093°18'0 0.0
2018-Feb-21 05:30N 30°06' W 093°18'0 0.0
2018-Feb-21 05:00N 30°06' W 093°18'0 0.0
2018-Feb-21 04:30N 30°06' W 093°18'0 0.0
2018-Feb-21 04:00N 30°06' W 093°18'0 0.0
2018-Feb-21 03:30N 30°06' W 093°18'0 0.0
2018-Feb-21 03:00N 30°06' W 093°18'0 0.0
2018-Feb-21 02:30N 30°06' W 093°18'0 0.0
2018-Feb-21 02:00N 30°06' W 093°18'0 0.0
2018-Feb-21 01:30N 30°06' W 093°18'0 0.0
2018-Feb-21 01:00N 30°06' W 093°18'0 0.0
2018-Feb-21 00:30N 30°06' W 093°18'0 0.0
2018-Feb-21 00:00N 30°06' W 093°18'0 0.0
2018-Feb-20 23:30N 30°06' W 093°18'0 0.0
2018-Feb-20 23:00N 30°06' W 093°18'0 0.0
2018-Feb-20 22:30N 30°06' W 093°18'0 0.0
2018-Feb-20 22:00N 30°06' W 093°18'0 0.4
2018-Feb-20 21:30N 30°06' W 093°18'0 0.0
2018-Feb-20 21:00N 30°06' W 093°18'0 0.0
2018-Feb-20 20:29N 30°06' W 093°18'0 0.0
2018-Feb-20 20:00N 30°06' W 093°18'1 2.7
2018-Feb-20 19:30N 30°06' W 093°20'3 4.9
2018-Feb-20 19:00N 30°08' W 093°19'0 0.0
2018-Feb-20 18:30N 30°08' W 093°19'0 0.0
2018-Feb-20 18:00N 30°08' W 093°19'0 0.0
2018-Feb-20 17:30N 30°08' W 093°19'0 0.0
2018-Feb-20 17:00N 30°08' W 093°19'0 0.0
2018-Feb-20 16:30N 30°08' W 093°19'0 0.0
2018-Feb-20 16:00N 30°08' W 093°19'0 0.0
2018-Feb-20 15:30N 30°08' W 093°19'0 0.0
2018-Feb-20 15:00N 30°08' W 093°19'0 0.0
2018-Feb-20 14:30N 30°08' W 093°19'0 0.0
2018-Feb-20 14:00N 30°08' W 093°19'0 0.0
2018-Feb-20 13:30N 30°08' W 093°19'0 0.0
2018-Feb-20 13:00N 30°08' W 093°19'0 0.0
2018-Feb-20 12:30N 30°08' W 093°19'0 0.0
2018-Feb-20 12:00N 30°08' W 093°19'0 0.0
2018-Feb-20 11:30N 30°08' W 093°19'0 0.0
2018-Feb-20 11:00N 30°08' W 093°19'0 0.0
2018-Feb-20 10:29N 30°08' W 093°19'0 0.0
2018-Feb-20 10:00N 30°08' W 093°19'0 0.0
2018-Feb-20 09:30N 30°08' W 093°19'0 0.0
2018-Feb-20 09:00N 30°08' W 093°19'0 0.0
2018-Feb-20 08:26N 30°08' W 093°19'0 0.0
2018-Feb-20 07:50N 30°08' W 093°19'0 0.0
2018-Feb-20 07:30N 30°08' W 093°19'0 0.0
2018-Feb-20 07:00N 30°08' W 093°19'0 0.0
2018-Feb-20 06:30N 30°08' W 093°19'0 0.0
2018-Feb-20 06:00N 30°08' W 093°19'0 0.0
2018-Feb-20 05:30N 30°08' W 093°19'0 0.0
2018-Feb-20 05:00N 30°08' W 093°19'0 0.2
2018-Feb-20 04:30N 30°08' W 093°19'0 0.0
2018-Feb-20 04:00N 30°08' W 093°19'0 0.0
2018-Feb-20 03:30N 30°08' W 093°19'0 0.0
2018-Feb-20 03:00N 30°08' W 093°19'0 0.0
2018-Feb-20 02:30N 30°08' W 093°19'0 0.0
2018-Feb-20 01:59N 30°08' W 093°19'0 0.0
2018-Feb-20 01:30N 30°08' W 093°19'0 0.0
2018-Feb-20 01:00N 30°08' W 093°19'0 0.0
2018-Feb-20 00:30N 30°08' W 093°19'0 0.0
2018-Feb-20 00:00N 30°08' W 093°19'0 0.0
2018-Feb-19 23:30N 30°08' W 093°19'0 0.0
2018-Feb-19 23:00N 30°08' W 093°19'0 0.0
2018-Feb-19 22:30N 30°08' W 093°19'0 0.0
2018-Feb-19 22:00N 30°08' W 093°19'0 0.8
2018-Feb-19 21:30N 30°08' W 093°20'1 3.0
2018-Feb-19 21:00N 30°07' W 093°20'1 2.0
2018-Feb-19 20:30N 30°06' W 093°19'0 0.1
2018-Feb-19 20:00N 30°06' W 093°19'1 2.0
2018-Feb-19 19:30N 30°06' W 093°18'2 4.2
2018-Feb-19 19:00N 30°04' W 093°16'2 3.4
2018-Feb-19 18:30N 30°02' W 093°16'2 4.8
2018-Feb-19 18:00N 30°01' W 093°14'3 5.3
2018-Feb-19 17:30N 29°59' W 093°12'3 5.5
2018-Feb-19 17:00N 29°56' W 093°10'3 5.2
2018-Feb-19 16:29N 29°56' W 093°07'39 5.1
2018-Feb-19 08:49N 29°51' W 092°22'1 4.1
2018-Feb-19 08:28N 29°51' W 092°20'2 3.6
2018-Feb-19 08:00N 29°50' W 092°18'2 4.5
2018-Feb-19 07:30N 29°49' W 092°16'3 5.6
2018-Feb-19 07:00N 29°48' W 092°14'3 5.3
2018-Feb-19 06:30N 29°47' W 092°11'3 5.2
2018-Feb-19 06:00N 29°47' W 092°08'3 5.5
2018-Feb-19 05:30N 29°48' W 092°05'3 5.4
2018-Feb-19 05:00N 29°49' W 092°02'3 5.5
2018-Feb-19 04:30N 29°50' W 091°59'3 5.7
2018-Feb-19 04:00N 29°51' W 091°56'52 5.0
2018-Feb-18 17:34N 29°36' W 090°58'0 6.1
2018-Feb-18 17:30N 29°35' W 090°58'3 6.0
2018-Feb-18 17:00N 29°33' W 090°55'3 6.1
2018-Feb-18 16:27N 29°32' W 090°52'3 6.2
2018-Feb-18 16:00N 29°32' W 090°48'3 5.4
2018-Feb-18 15:30N 29°33' W 090°45'2 4.1
2018-Feb-18 15:00N 29°34' W 090°43'2 3.7
2018-Feb-18 14:30N 29°36' W 090°43'1 2.8
2018-Feb-18 14:00N 29°37' W 090°42'0 0.2
2018-Feb-18 13:28N 29°37' W 090°42'0 0.0
2018-Feb-18 13:00N 29°37' W 090°42'0 0.0
2018-Feb-18 12:29N 29°37' W 090°42'0 0.0
2018-Feb-18 12:00N 29°37' W 090°42'0 0.0
2018-Feb-18 11:30N 29°37' W 090°42'0 0.0
2018-Feb-18 11:00N 29°37' W 090°42'0 0.0
2018-Feb-18 10:30N 29°37' W 090°42'0 0.0
2018-Feb-18 09:57N 29°37' W 090°42'0 0.0
2018-Feb-18 09:30N 29°37' W 090°42'0 0.0
2018-Feb-18 08:57N 29°37' W 090°42'0 0.0
2018-Feb-18 08:30N 29°37' W 090°42'0 0.0
2018-Feb-18 08:00N 29°37' W 090°42'0 0.0
2018-Feb-18 07:29N 29°37' W 090°42'0 0.0
2018-Feb-18 07:00N 29°37' W 090°42'0 0.0
2018-Feb-18 06:30N 29°37' W 090°42'0 0.0
2018-Feb-18 06:00N 29°37' W 090°42'0 0.0
2018-Feb-18 05:30N 29°37' W 090°42'0 0.0
2018-Feb-18 05:00N 29°37' W 090°42'0 0.0
2018-Feb-18 04:30N 29°37' W 090°42'0 0.0
2018-Feb-18 04:00N 29°37' W 090°42'0 0.0
2018-Feb-18 03:30N 29°37' W 090°42'0 0.0
2018-Feb-18 03:00N 29°37' W 090°42'0 0.0
2018-Feb-18 02:30N 29°37' W 090°42'0 0.0
2018-Feb-18 02:00N 29°37' W 090°42'0 0.0
2018-Feb-18 01:30N 29°37' W 090°42'0 0.0
2018-Feb-18 01:00N 29°37' W 090°42'0 0.0
2018-Feb-18 00:30N 29°37' W 090°42'0 0.0
2018-Feb-18 00:00N 29°37' W 090°42'0 0.0
2018-Feb-17 23:30N 29°37' W 090°42'0 0.0
2018-Feb-17 23:00N 29°37' W 090°42'0 0.0
2018-Feb-17 22:30N 29°37' W 090°42'0 0.0
2018-Feb-17 22:00N 29°37' W 090°42'0 0.0
2018-Feb-17 21:30N 29°37' W 090°42'0 0.0
2018-Feb-17 21:00N 29°37' W 090°42'0 0.0
2018-Feb-17 20:30N 29°37' W 090°42'0 0.0
2018-Feb-17 20:00N 29°37' W 090°42'0 0.0
2018-Feb-17 19:30N 29°37' W 090°42'0 0.0
2018-Feb-17 19:00N 29°37' W 090°42'0 0.0
2018-Feb-17 18:30N 29°37' W 090°42'0 0.0
2018-Feb-17 18:00N 29°37' W 090°42'0 0.0
2018-Feb-17 17:30N 29°37' W 090°42'0 0.0
2018-Feb-17 17:00N 29°37' W 090°42'0 0.0
2018-Feb-17 16:30N 29°37' W 090°42'0 0.0
2018-Feb-17 16:00N 29°37' W 090°42'0 0.0
2018-Feb-17 15:30N 29°37' W 090°42'0 0.0
2018-Feb-17 15:00N 29°37' W 090°42'0 0.0
2018-Feb-17 14:30N 29°37' W 090°42'0 0.0
2018-Feb-17 14:00N 29°37' W 090°42'0 0.0
2018-Feb-17 13:30N 29°37' W 090°42'0 0.0
2018-Feb-17 13:00N 29°37' W 090°42'0 0.0
2018-Feb-17 12:30N 29°37' W 090°42'0 0.0
2018-Feb-17 12:00N 29°37' W 090°42'0 0.0
2018-Feb-17 11:30N 29°37' W 090°42'0 0.0
2018-Feb-17 11:00N 29°37' W 090°42'0 0.0
2018-Feb-17 10:30N 29°37' W 090°42'0 0.0
2018-Feb-17 10:00N 29°37' W 090°42'0 0.1
2018-Feb-17 09:30N 29°37' W 090°42'1 1.1
2018-Feb-17 09:00N 29°37' W 090°42'2 4.7
2018-Feb-17 08:30N 29°34' W 090°43'2 4.7
2018-Feb-17 08:00N 29°33' W 090°45'0 0.4
2018-Feb-17 07:30N 29°33' W 090°45'0 0.3
2018-Feb-17 07:00N 29°33' W 090°45'2 3.9
2018-Feb-17 06:30N 29°32' W 090°48'62 5.7
2018-Feb-16 19:30N 29°51' W 091°56'4 7.5
2018-Feb-16 19:00N 29°50' W 092°00'4 7.6
2018-Feb-16 18:30N 29°48' W 092°04'4 7.4
2018-Feb-16 18:00N 29°47' W 092°08'3 6.7
2018-Feb-16 17:29N 29°47' W 092°12'4 8.0
2018-Feb-16 17:00N 29°49' W 092°16'4 7.3
2018-Feb-16 16:24N 29°51' W 092°21'25 3.4
2018-Feb-16 08:55N 29°58' W 092°49'0 0.1
2018-Feb-16 08:25N 29°58' W 092°49'0 0.0
2018-Feb-16 07:57N 29°58' W 092°49'1 2.7
2018-Feb-16 07:30N 29°58' W 092°50'4 7.2
2018-Feb-16 06:54N 29°56' W 092°55'2 4.6
2018-Feb-16 06:27N 29°56' W 092°57'4 3.5
2018-Feb-16 05:11N 29°56' W 093°02'2 6.8
2018-Feb-16 04:55N 29°56' W 093°04'2 4.9
2018-Feb-16 04:30N 29°56' W 093°06'0 0.0
2018-Feb-16 04:00N 29°56' W 093°06'0 0.0
2018-Feb-16 03:29N 29°56' W 093°06'0 0.0
2018-Feb-16 03:00N 29°56' W 093°06'0 0.0
2018-Feb-16 02:30N 29°56' W 093°06'0 0.0
2018-Feb-16 01:58N 29°56' W 093°06'1 1.9
2018-Feb-16 01:30N 29°56' W 093°07'3 5.6
2018-Feb-16 01:00N 29°57' W 093°10'3 6.5
2018-Feb-16 00:29N 29°60' W 093°13'3 6.0
2018-Feb-16 00:00N 30°02' W 093°15'3 6.2
2018-Feb-15 23:30N 30°05' W 093°17'3 5.0
2018-Feb-15 23:00N 30°06' W 093°19'0 0.1
2018-Feb-15 22:30N 30°06' W 093°19'0 0.0
2018-Feb-15 22:00N 30°06' W 093°19'0 0.2
2018-Feb-15 21:30N 30°06' W 093°19'1 1.7
2018-Feb-15 21:00N 30°07' W 093°20'2 3.5
2018-Feb-15 20:30N 30°08' W 093°19'0 0.0
2018-Feb-15 20:00N 30°08' W 093°19'0 0.0
2018-Feb-15 19:29N 30°08' W 093°19'0 0.0
2018-Feb-15 19:00N 30°08' W 093°19'0 0.0
2018-Feb-15 18:28N 30°08' W 093°19'0 0.0
2018-Feb-15 18:00N 30°08' W 093°19'0 0.0
2018-Feb-15 17:30N 30°08' W 093°19'0 0.0
2018-Feb-15 17:00N 30°08' W 093°19'0 0.0
2018-Feb-15 16:30N 30°08' W 093°19'0 0.0
2018-Feb-15 16:00N 30°08' W 093°19'0 0.0
2018-Feb-15 15:30N 30°08' W 093°19'0 0.0
2018-Feb-15 14:58N 30°08' W 093°19'0 0.0
2018-Feb-15 14:27N 30°08' W 093°19'0 0.0
2018-Feb-15 14:00N 30°08' W 093°19'0 0.0
2018-Feb-15 13:30N 30°08' W 093°19'0 0.0
2018-Feb-15 13:00N 30°08' W 093°19'0 0.0
2018-Feb-15 12:30N 30°08' W 093°19'0 0.0
2018-Feb-15 12:00N 30°08' W 093°19'0 0.0
2018-Feb-15 11:29N 30°08' W 093°19'0 0.0
2018-Feb-15 11:00N 30°08' W 093°19'0 0.0
2018-Feb-15 10:30N 30°08' W 093°19'0 0.0
2018-Feb-15 10:00N 30°08' W 093°19'0 0.0
2018-Feb-15 09:30N 30°08' W 093°19'0 0.1
2018-Feb-15 09:00N 30°08' W 093°19'0 0.0
2018-Feb-15 08:30N 30°08' W 093°19'0 0.0
2018-Feb-15 08:00N 30°08' W 093°19'0 0.0
2018-Feb-15 07:30N 30°08' W 093°19'0 0.1
2018-Feb-15 07:00N 30°08' W 093°19'0 0.8
2018-Feb-15 06:30N 30°08' W 093°20'1 2.2
2018-Feb-15 06:00N 30°07' W 093°20'1 1.9
2018-Feb-15 05:30N 30°06' W 093°20'0 0.7
2018-Feb-15 05:00N 30°06' W 093°20'0 0.6
2018-Feb-15 04:30N 30°05' W 093°20'1 2.7
2018-Feb-15 04:00N 30°04' W 093°21'1 2.2
2018-Feb-15 03:30N 30°04' W 093°21'1 2.3
2018-Feb-15 03:00N 30°04' W 093°23'2 3.2
2018-Feb-15 02:30N 30°04' W 093°25'1 2.1
2018-Feb-15 02:00N 30°04' W 093°26'1 1.7
2018-Feb-15 01:30N 30°04' W 093°27'1 1.9
2018-Feb-15 01:00N 30°04' W 093°28'1 1.9
2018-Feb-15 00:30N 30°04' W 093°29'2 4.8
2018-Feb-15 00:00N 30°04' W 093°32'3 5.5
2018-Feb-14 23:30N 30°04' W 093°35'3 6.0
2018-Feb-14 23:00N 30°04' W 093°38'3 6.4
2018-Feb-14 22:30N 30°03' W 093°42'3 5.9
2018-Feb-14 22:00N 30°01' W 093°45'3 5.7
2018-Feb-14 21:30N 29°60' W 093°47'2 4.9
2018-Feb-14 21:00N 29°59' W 093°50'2 3.5
2018-Feb-14 20:30N 29°58' W 093°51'2 3.8
2018-Feb-14 20:00N 29°56' W 093°52'0 0.1
2018-Feb-14 19:30N 29°56' W 093°52'0 0.0
2018-Feb-14 19:00N 29°56' W 093°52'0 0.0
2018-Feb-14 18:30N 29°56' W 093°52'0 0.0
2018-Feb-14 18:00N 29°56' W 093°52'0 0.0
2018-Feb-14 17:30N 29°56' W 093°52'0 0.0
2018-Feb-14 17:00N 29°56' W 093°52'0 0.0
2018-Feb-14 16:30N 29°56' W 093°52'0 0.0
2018-Feb-14 16:00N 29°56' W 093°52'0 0.0
2018-Feb-14 15:30N 29°56' W 093°52'0 0.0
2018-Feb-14 15:00N 29°56' W 093°52'0 0.0
2018-Feb-14 14:30N 29°56' W 093°52'0 0.0
2018-Feb-14 14:00N 29°56' W 093°52'0 0.0
2018-Feb-14 13:30N 29°56' W 093°52'0 0.0
2018-Feb-14 13:00N 29°56' W 093°52'0 0.0
2018-Feb-14 12:30N 29°56' W 093°52'0 0.0
2018-Feb-14 12:00N 29°56' W 093°52'0 0.0
2018-Feb-14 11:30N 29°56' W 093°52'0 0.0
2018-Feb-14 11:00N 29°56' W 093°52'0 0.0
2018-Feb-14 10:30N 29°56' W 093°52'0 0.0
2018-Feb-14 10:00N 29°56' W 093°52'0 0.0
2018-Feb-14 09:30N 29°56' W 093°52'0 0.1
2018-Feb-14 09:00N 29°56' W 093°52'3 5.3
2018-Feb-14 08:31N 29°54' W 093°54'3 6.8
2018-Feb-14 08:00N 29°51' W 093°57'3 5.2
2018-Feb-14 07:30N 29°49' W 093°59'2 3.6
2018-Feb-14 07:00N 29°48' W 094°00'3 5.4
2018-Feb-14 06:30N 29°46' W 094°02'3 5.3
2018-Feb-14 06:00N 29°45' W 094°05'3 5.3
2018-Feb-14 05:30N 29°43' W 094°07'3 5.2
2018-Feb-14 05:00N 29°41' W 094°10'2 4.8
2018-Feb-14 04:30N 29°41' W 094°12'2 4.3
2018-Feb-14 04:00N 29°40' W 094°14'2 4.4
2018-Feb-14 03:30N 29°39' W 094°17'2 4.5
2018-Feb-14 03:00N 29°38' W 094°19'2 4.3
2018-Feb-14 02:29N 29°37' W 094°21'2 4.4
2018-Feb-14 01:59N 29°36' W 094°23'2 3.3
2018-Feb-14 01:30N 29°35' W 094°25'  
Track history (hours):
 
Tides and Currents Weather Stations Pressure Air Temp Water Temp Dewpoint Dewpoint Depression Visibility Wind Speed Wind Dir Waves Ship Positions

Jackie Gonsoulin

Owner: LeBeouf Bros. Towing, LLC, Houma, LA. More information available from US FCC via Universal Licensing System and Coast Guard Vessel Documentation Center.

Last reported at 2018-Feb-21 19:00 UTC. Time now 2018-Feb-21 19:12 UTC.
Position N 30°01' W 093°59'.

Length 23 m.

Type: Tug. MMSI: 367332930.

Date/timePositionNaut miles runAvg speedWind from/ knotsBaromVisibWave heightAir tempDewpointWater temp
2018-Feb-21 19:00N 30°01' W 093°59'2 4.6
2018-Feb-21 18:30N 29°60' W 093°57'4 8.2
2018-Feb-21 18:01N 29°59' W 093°52'3 5.1
2018-Feb-21 17:30N 29°59' W 093°49'3 5.5
2018-Feb-21 17:00N 30°00' W 093°46'3 6.8
2018-Feb-21 16:30N 30°03' W 093°44'3 6.4
2018-Feb-21 16:00N 30°04' W 093°40'3 6.6
2018-Feb-21 15:30N 30°04' W 093°36'3 6.6
2018-Feb-21 15:00N 30°04' W 093°33'3 6.7
2018-Feb-21 14:30N 30°04' W 093°29'3 6.3
2018-Feb-21 14:00N 30°04' W 093°25'3 6.4
2018-Feb-21 13:30N 30°04' W 093°22'2 4.9
2018-Feb-21 13:00N 30°05' W 093°20'1 2.9
2018-Feb-21 12:30N 30°06' W 093°18'0 0.1
2018-Feb-21 12:00N 30°06' W 093°18'0 0.0
2018-Feb-21 11:30N 30°06' W 093°18'0 0.0
2018-Feb-21 11:00N 30°06' W 093°18'0 0.0
2018-Feb-21 10:30N 30°06' W 093°18'0 0.0
2018-Feb-21 10:00N 30°06' W 093°18'0 0.0
2018-Feb-21 09:30N 30°06' W 093°18'0 0.0
2018-Feb-21 09:00N 30°06' W 093°18'0 0.0
2018-Feb-21 08:30N 30°06' W 093°18'0 0.0
2018-Feb-21 08:00N 30°06' W 093°18'0 0.0
2018-Feb-21 07:30N 30°06' W 093°18'0 0.0
2018-Feb-21 07:00N 30°06' W 093°18'0 0.0
2018-Feb-21 06:30N 30°06' W 093°18'0 0.0
2018-Feb-21 06:00N 30°06' W 093°18'0 0.0
2018-Feb-21 05:30N 30°06' W 093°18'0 0.0
2018-Feb-21 05:00N 30°06' W 093°18'0 0.0
2018-Feb-21 04:30N 30°06' W 093°18'0 0.0
2018-Feb-21 04:00N 30°06' W 093°18'0 0.0
2018-Feb-21 03:30N 30°06' W 093°18'0 0.0
2018-Feb-21 03:00N 30°06' W 093°18'0 0.0
2018-Feb-21 02:30N 30°06' W 093°18'0 0.0
2018-Feb-21 02:00N 30°06' W 093°18'0 0.0
2018-Feb-21 01:30N 30°06' W 093°18'0 0.0
2018-Feb-21 01:00N 30°06' W 093°18'0 0.0
2018-Feb-21 00:30N 30°06' W 093°18'0 0.0
2018-Feb-21 00:00N 30°06' W 093°18'0 0.0
2018-Feb-20 23:30N 30°06' W 093°18'0 0.0
2018-Feb-20 23:00N 30°06' W 093°18'0 0.0
2018-Feb-20 22:30N 30°06' W 093°18'0 0.0
2018-Feb-20 22:00N 30°06' W 093°18'0 0.4
2018-Feb-20 21:30N 30°06' W 093°18'0 0.0
2018-Feb-20 21:00N 30°06' W 093°18'0 0.0
2018-Feb-20 20:29N 30°06' W 093°18'0 0.0
2018-Feb-20 20:00N 30°06' W 093°18'1 2.7
2018-Feb-20 19:30N 30°06' W 093°20'3 4.9
2018-Feb-20 19:00N 30°08' W 093°19'0 0.0
2018-Feb-20 18:30N 30°08' W 093°19'0 0.0
2018-Feb-20 18:00N 30°08' W 093°19'0 0.0
2018-Feb-20 17:30N 30°08' W 093°19'0 0.0
2018-Feb-20 17:00N 30°08' W 093°19'0 0.0
2018-Feb-20 16:30N 30°08' W 093°19'0 0.0
2018-Feb-20 16:00N 30°08' W 093°19'0 0.0
2018-Feb-20 15:30N 30°08' W 093°19'0 0.0
2018-Feb-20 15:00N 30°08' W 093°19'0 0.0
2018-Feb-20 14:30N 30°08' W 093°19'0 0.0
2018-Feb-20 14:00N 30°08' W 093°19'0 0.0
2018-Feb-20 13:30N 30°08' W 093°19'0 0.0
2018-Feb-20 13:00N 30°08' W 093°19'0 0.0
2018-Feb-20 12:30N 30°08' W 093°19'0 0.0
2018-Feb-20 12:00N 30°08' W 093°19'0 0.0
2018-Feb-20 11:30N 30°08' W 093°19'0 0.0
2018-Feb-20 11:00N 30°08' W 093°19'0 0.0
2018-Feb-20 10:29N 30°08' W 093°19'0 0.0
2018-Feb-20 10:00N 30°08' W 093°19'0 0.0
2018-Feb-20 09:30N 30°08' W 093°19'0 0.0
2018-Feb-20 09:00N 30°08' W 093°19'0 0.0
2018-Feb-20 08:26N 30°08' W 093°19'0 0.0
2018-Feb-20 07:50N 30°08' W 093°19'0 0.0
2018-Feb-20 07:30N 30°08' W 093°19'0 0.0
2018-Feb-20 07:00N 30°08' W 093°19'0 0.0
2018-Feb-20 06:30N 30°08' W 093°19'0 0.0
2018-Feb-20 06:00N 30°08' W 093°19'0 0.0
2018-Feb-20 05:30N 30°08' W 093°19'0 0.0
2018-Feb-20 05:00N 30°08' W 093°19'0 0.2
2018-Feb-20 04:30N 30°08' W 093°19'0 0.0
2018-Feb-20 04:00N 30°08' W 093°19'0 0.0
2018-Feb-20 03:30N 30°08' W 093°19'0 0.0
2018-Feb-20 03:00N 30°08' W 093°19'0 0.0
2018-Feb-20 02:30N 30°08' W 093°19'0 0.0
2018-Feb-20 01:59N 30°08' W 093°19'0 0.0
2018-Feb-20 01:30N 30°08' W 093°19'0 0.0
2018-Feb-20 01:00N 30°08' W 093°19'0 0.0
2018-Feb-20 00:30N 30°08' W 093°19'0 0.0
2018-Feb-20 00:00N 30°08' W 093°19'0 0.0
2018-Feb-19 23:30N 30°08' W 093°19'0 0.0
2018-Feb-19 23:00N 30°08' W 093°19'0 0.0
2018-Feb-19 22:30N 30°08' W 093°19'0 0.0
2018-Feb-19 22:00N 30°08' W 093°19'0 0.8
2018-Feb-19 21:30N 30°08' W 093°20'1 3.0
2018-Feb-19 21:00N 30°07' W 093°20'1 2.0
2018-Feb-19 20:30N 30°06' W 093°19'0 0.1
2018-Feb-19 20:00N 30°06' W 093°19'1 2.0
2018-Feb-19 19:30N 30°06' W 093°18'2 4.2
2018-Feb-19 19:00N 30°04' W 093°16'2 3.4
2018-Feb-19 18:30N 30°02' W 093°16'2 4.8
2018-Feb-19 18:00N 30°01' W 093°14'3 5.3
2018-Feb-19 17:30N 29°59' W 093°12'3 5.5
2018-Feb-19 17:00N 29°56' W 093°10'3 5.2
2018-Feb-19 16:29N 29°56' W 093°07'39 5.1
2018-Feb-19 08:49N 29°51' W 092°22'1 4.1
2018-Feb-19 08:28N 29°51' W 092°20'2 3.6
2018-Feb-19 08:00N 29°50' W 092°18'2 4.5
2018-Feb-19 07:30N 29°49' W 092°16'3 5.6
2018-Feb-19 07:00N 29°48' W 092°14'3 5.3
2018-Feb-19 06:30N 29°47' W 092°11'3 5.2
2018-Feb-19 06:00N 29°47' W 092°08'3 5.5
2018-Feb-19 05:30N 29°48' W 092°05'3 5.4
2018-Feb-19 05:00N 29°49' W 092°02'3 5.5
2018-Feb-19 04:30N 29°50' W 091°59'3 5.7
2018-Feb-19 04:00N 29°51' W 091°56'52 5.0
2018-Feb-18 17:34N 29°36' W 090°58'0 6.1
2018-Feb-18 17:30N 29°35' W 090°58'3 6.0
2018-Feb-18 17:00N 29°33' W 090°55'3 6.1
2018-Feb-18 16:27N 29°32' W 090°52'3 6.2
2018-Feb-18 16:00N 29°32' W 090°48'3 5.4
2018-Feb-18 15:30N 29°33' W 090°45'2 4.1
2018-Feb-18 15:00N 29°34' W 090°43'2 3.7
2018-Feb-18 14:30N 29°36' W 090°43'1 2.8
2018-Feb-18 14:00N 29°37' W 090°42'0 0.2
2018-Feb-18 13:28N 29°37' W 090°42'0 0.0
2018-Feb-18 13:00N 29°37' W 090°42'0 0.0
2018-Feb-18 12:29N 29°37' W 090°42'0 0.0
2018-Feb-18 12:00N 29°37' W 090°42'0 0.0
2018-Feb-18 11:30N 29°37' W 090°42'0 0.0
2018-Feb-18 11:00N 29°37' W 090°42'0 0.0
2018-Feb-18 10:30N 29°37' W 090°42'0 0.0
2018-Feb-18 09:57N 29°37' W 090°42'0 0.0
2018-Feb-18 09:30N 29°37' W 090°42'0 0.0
2018-Feb-18 08:57N 29°37' W 090°42'0 0.0
2018-Feb-18 08:30N 29°37' W 090°42'0 0.0
2018-Feb-18 08:00N 29°37' W 090°42'0 0.0
2018-Feb-18 07:29N 29°37' W 090°42'0 0.0
2018-Feb-18 07:00N 29°37' W 090°42'0 0.0
2018-Feb-18 06:30N 29°37' W 090°42'0 0.0
2018-Feb-18 06:00N 29°37' W 090°42'0 0.0
2018-Feb-18 05:30N 29°37' W 090°42'0 0.0
2018-Feb-18 05:00N 29°37' W 090°42'0 0.0
2018-Feb-18 04:30N 29°37' W 090°42'0 0.0
2018-Feb-18 04:00N 29°37' W 090°42'0 0.0
2018-Feb-18 03:30N 29°37' W 090°42'0 0.0
2018-Feb-18 03:00N 29°37' W 090°42'0 0.0
2018-Feb-18 02:30N 29°37' W 090°42'0 0.0
2018-Feb-18 02:00N 29°37' W 090°42'0 0.0
2018-Feb-18 01:30N 29°37' W 090°42'0 0.0
2018-Feb-18 01:00N 29°37' W 090°42'0 0.0
2018-Feb-18 00:30N 29°37' W 090°42'0 0.0
2018-Feb-18 00:00N 29°37' W 090°42'0 0.0
2018-Feb-17 23:30N 29°37' W 090°42'0 0.0
2018-Feb-17 23:00N 29°37' W 090°42'0 0.0
2018-Feb-17 22:30N 29°37' W 090°42'0 0.0
2018-Feb-17 22:00N 29°37' W 090°42'0 0.0
2018-Feb-17 21:30N 29°37' W 090°42'0 0.0
2018-Feb-17 21:00N 29°37' W 090°42'0 0.0
2018-Feb-17 20:30N 29°37' W 090°42'0 0.0
2018-Feb-17 20:00N 29°37' W 090°42'0 0.0
2018-Feb-17 19:30N 29°37' W 090°42'0 0.0
2018-Feb-17 19:00N 29°37' W 090°42'0 0.0
2018-Feb-17 18:30N 29°37' W 090°42'0 0.0
2018-Feb-17 18:00N 29°37' W 090°42'0 0.0
2018-Feb-17 17:30N 29°37' W 090°42'0 0.0
2018-Feb-17 17:00N 29°37' W 090°42'0 0.0
2018-Feb-17 16:30N 29°37' W 090°42'0 0.0
2018-Feb-17 16:00N 29°37' W 090°42'0 0.0
2018-Feb-17 15:30N 29°37' W 090°42'0 0.0
2018-Feb-17 15:00N 29°37' W 090°42'0 0.0
2018-Feb-17 14:30N 29°37' W 090°42'0 0.0
2018-Feb-17 14:00N 29°37' W 090°42'0 0.0
2018-Feb-17 13:30N 29°37' W 090°42'0 0.0
2018-Feb-17 13:00N 29°37' W 090°42'0 0.0
2018-Feb-17 12:30N 29°37' W 090°42'0 0.0
2018-Feb-17 12:00N 29°37' W 090°42'0 0.0
2018-Feb-17 11:30N 29°37' W 090°42'0 0.0
2018-Feb-17 11:00N 29°37' W 090°42'0 0.0
2018-Feb-17 10:30N 29°37' W 090°42'0 0.0
2018-Feb-17 10:00N 29°37' W 090°42'0 0.1
2018-Feb-17 09:30N 29°37' W 090°42'1 1.1
2018-Feb-17 09:00N 29°37' W 090°42'2 4.7
2018-Feb-17 08:30N 29°34' W 090°43'2 4.7
2018-Feb-17 08:00N 29°33' W 090°45'0 0.4
2018-Feb-17 07:30N 29°33' W 090°45'0 0.3
2018-Feb-17 07:00N 29°33' W 090°45'2 3.9
2018-Feb-17 06:30N 29°32' W 090°48'62 5.7
2018-Feb-16 19:30N 29°51' W 091°56'4 7.5
2018-Feb-16 19:00N 29°50' W 092°00'4 7.6
2018-Feb-16 18:30N 29°48' W 092°04'4 7.4
2018-Feb-16 18:00N 29°47' W 092°08'3 6.7
2018-Feb-16 17:29N 29°47' W 092°12'4 8.0
2018-Feb-16 17:00N 29°49' W 092°16'4 7.3
2018-Feb-16 16:24N 29°51' W 092°21'25 3.4
2018-Feb-16 08:55N 29°58' W 092°49'0 0.1
2018-Feb-16 08:25N 29°58' W 092°49'0 0.0
2018-Feb-16 07:57N 29°58' W 092°49'1 2.7
2018-Feb-16 07:30N 29°58' W 092°50'4 7.2
2018-Feb-16 06:54N 29°56' W 092°55'2 4.6
2018-Feb-16 06:27N 29°56' W 092°57'4 3.5
2018-Feb-16 05:11N 29°56' W 093°02'2 6.8
2018-Feb-16 04:55N 29°56' W 093°04'2 4.9
2018-Feb-16 04:30N 29°56' W 093°06'0 0.0
2018-Feb-16 04:00N 29°56' W 093°06'0 0.0
2018-Feb-16 03:29N 29°56' W 093°06'0 0.0
2018-Feb-16 03:00N 29°56' W 093°06'0 0.0
2018-Feb-16 02:30N 29°56' W 093°06'0 0.0
2018-Feb-16 01:58N 29°56' W 093°06'1 1.9
2018-Feb-16 01:30N 29°56' W 093°07'3 5.6
2018-Feb-16 01:00N 29°57' W 093°10'3 6.5
2018-Feb-16 00:29N 29°60' W 093°13'3 6.0
2018-Feb-16 00:00N 30°02' W 093°15'3 6.2
2018-Feb-15 23:30N 30°05' W 093°17'3 5.0
2018-Feb-15 23:00N 30°06' W 093°19'0 0.1
2018-Feb-15 22:30N 30°06' W 093°19'0 0.0
2018-Feb-15 22:00N 30°06' W 093°19'0 0.2
2018-Feb-15 21:30N 30°06' W 093°19'1 1.7
2018-Feb-15 21:00N 30°07' W 093°20'2 3.5
2018-Feb-15 20:30N 30°08' W 093°19'0 0.0
2018-Feb-15 20:00N 30°08' W 093°19'0 0.0
2018-Feb-15 19:29N 30°08' W 093°19'0 0.0
2018-Feb-15 19:00N 30°08' W 093°19'0 0.0
2018-Feb-15 18:28N 30°08' W 093°19'0 0.0
2018-Feb-15 18:00N 30°08' W 093°19'0 0.0
2018-Feb-15 17:30N 30°08' W 093°19'0 0.0
2018-Feb-15 17:00N 30°08' W 093°19'0 0.0
2018-Feb-15 16:30N 30°08' W 093°19'0 0.0
2018-Feb-15 16:00N 30°08' W 093°19'0 0.0
2018-Feb-15 15:30N 30°08' W 093°19'0 0.0
2018-Feb-15 14:58N 30°08' W 093°19'0 0.0
2018-Feb-15 14:27N 30°08' W 093°19'0 0.0
2018-Feb-15 14:00N 30°08' W 093°19'0 0.0
2018-Feb-15 13:30N 30°08' W 093°19'0 0.0
2018-Feb-15 13:00N 30°08' W 093°19'0 0.0
2018-Feb-15 12:30N 30°08' W 093°19'0 0.0
2018-Feb-15 12:00N 30°08' W 093°19'0 0.0
2018-Feb-15 11:29N 30°08' W 093°19'0 0.0
2018-Feb-15 11:00N 30°08' W 093°19'0 0.0
2018-Feb-15 10:30N 30°08' W 093°19'0 0.0
2018-Feb-15 10:00N 30°08' W 093°19'0 0.0
2018-Feb-15 09:30N 30°08' W 093°19'0 0.1
2018-Feb-15 09:00N 30°08' W 093°19'0 0.0
2018-Feb-15 08:30N 30°08' W 093°19'0 0.0
2018-Feb-15 08:00N 30°08' W 093°19'0 0.0
2018-Feb-15 07:30N 30°08' W 093°19'0 0.1
2018-Feb-15 07:00N 30°08' W 093°19'0 0.8
2018-Feb-15 06:30N 30°08' W 093°20'1 2.2
2018-Feb-15 06:00N 30°07' W 093°20'1 1.9
2018-Feb-15 05:30N 30°06' W 093°20'0 0.7
2018-Feb-15 05:00N 30°06' W 093°20'0 0.6
2018-Feb-15 04:30N 30°05' W 093°20'1 2.7
2018-Feb-15 04:00N 30°04' W 093°21'1 2.2
2018-Feb-15 03:30N 30°04' W 093°21'1 2.3
2018-Feb-15 03:00N 30°04' W 093°23'2 3.2
2018-Feb-15 02:30N 30°04' W 093°25'1 2.1
2018-Feb-15 02:00N 30°04' W 093°26'1 1.7
2018-Feb-15 01:30N 30°04' W 093°27'1 1.9
2018-Feb-15 01:00N 30°04' W 093°28'1 1.9
2018-Feb-15 00:30N 30°04' W 093°29'2 4.8
2018-Feb-15 00:00N 30°04' W 093°32'3 5.5
2018-Feb-14 23:30N 30°04' W 093°35'3 6.0
2018-Feb-14 23:00N 30°04' W 093°38'3 6.4
2018-Feb-14 22:30N 30°03' W 093°42'3 5.9
2018-Feb-14 22:00N 30°01' W 093°45'3 5.7
2018-Feb-14 21:30N 29°60' W 093°47'2 4.9
2018-Feb-14 21:00N 29°59' W 093°50'2 3.5
2018-Feb-14 20:30N 29°58' W 093°51'2 3.8
2018-Feb-14 20:00N 29°56' W 093°52'0 0.1
2018-Feb-14 19:30N 29°56' W 093°52'0 0.0
2018-Feb-14 19:00N 29°56' W 093°52'0 0.0
2018-Feb-14 18:30N 29°56' W 093°52'0 0.0
2018-Feb-14 18:00N 29°56' W 093°52'0 0.0
2018-Feb-14 17:30N 29°56' W 093°52'0 0.0
2018-Feb-14 17:00N 29°56' W 093°52'0 0.0
2018-Feb-14 16:30N 29°56' W 093°52'0 0.0
2018-Feb-14 16:00N 29°56' W 093°52'0 0.0
2018-Feb-14 15:30N 29°56' W 093°52'0 0.0
2018-Feb-14 15:00N 29°56' W 093°52'0 0.0
2018-Feb-14 14:30N 29°56' W 093°52'0 0.0
2018-Feb-14 14:00N 29°56' W 093°52'0 0.0
2018-Feb-14 13:30N 29°56' W 093°52'0 0.0
2018-Feb-14 13:00N 29°56' W 093°52'0 0.0
2018-Feb-14 12:30N 29°56' W 093°52'0 0.0
2018-Feb-14 12:00N 29°56' W 093°52'0 0.0
2018-Feb-14 11:30N 29°56' W 093°52'0 0.0
2018-Feb-14 11:00N 29°56' W 093°52'0 0.0
2018-Feb-14 10:30N 29°56' W 093°52'0 0.0
2018-Feb-14 10:00N 29°56' W 093°52'0 0.0
2018-Feb-14 09:30N 29°56' W 093°52'0 0.1
2018-Feb-14 09:00N 29°56' W 093°52'3 5.3
2018-Feb-14 08:31N 29°54' W 093°54'3 6.8
2018-Feb-14 08:00N 29°51' W 093°57'3 5.2
2018-Feb-14 07:30N 29°49' W 093°59'2 3.6
2018-Feb-14 07:00N 29°48' W 094°00'3 5.4
2018-Feb-14 06:30N 29°46' W 094°02'3 5.3
2018-Feb-14 06:00N 29°45' W 094°05'3 5.3
2018-Feb-14 05:30N 29°43' W 094°07'3 5.2
2018-Feb-14 05:00N 29°41' W 094°10'2 4.8
2018-Feb-14 04:30N 29°41' W 094°12'2 4.3
2018-Feb-14 04:00N 29°40' W 094°14'2 4.4
2018-Feb-14 03:30N 29°39' W 094°17'2 4.5
2018-Feb-14 03:00N 29°38' W 094°19'2 4.3
2018-Feb-14 02:29N 29°37' W 094°21'2 4.4
2018-Feb-14 01:59N 29°36' W 094°23'2 3.3
2018-Feb-14 01:30N 29°35' W 094°25'  

Dump ship's entire track history